Time;durP1;ratioP1;P1;durP2;ratioP2;P2;SDS_P1;SDS_P2;PMS_P1;PMS_P2;Temp;Humidity;BMP_temperature;BMP_pressure;BME280_temperature;BME280_humidity;BME280_pressure;Samples;Min_cycle;Max_cycle;Signal;HPM_P1;HPM_P2
2023/11/11 00:02:05;;;;;;;3.20;1.17;;;7.80;99.90;;;;;;4826874;29;20524;-79
2023/11/11 00:04:31;;;;;;;3.40;1.10;;;7.70;99.90;;;;;;4826692;29;20208;-79
2023/11/11 00:06:57;;;;;;;5.33;1.23;;;7.70;99.90;;;;;;4842595;29;20637;-78
2023/11/11 00:09:23;;;;;;;3.93;1.23;;;7.70;99.90;;;;;;4826742;29;20261;-79
2023/11/11 00:11:49;;;;;;;4.13;1.00;;;7.70;99.90;;;;;;4826927;29;20672;-92
2023/11/11 00:14:15;;;;;;;3.17;1.20;;;7.70;99.90;;;;;;4842658;29;20621;-93
2023/11/11 00:16:41;;;;;;;5.25;0.95;;;7.70;99.90;;;;;;4826534;29;20193;-93
2023/11/11 00:19:09;;;;;;;2.42;1.10;;;7.70;99.90;;;;;;4826495;29;20201;-89
2023/11/11 00:21:37;;;;;;;5.40;1.42;;;7.70;99.90;;;;;;4842671;29;20189;-92
2023/11/11 00:24:11;;;;;;;2.30;1.00;;;7.70;99.90;;;;;;4826203;29;20194;-79
2023/11/11 00:26:38;;;;;;;4.13;0.80;;;7.70;99.90;;;;;;4826180;29;20316;-79
2023/11/11 00:29:05;;;;;;;5.22;1.10;;;7.60;99.90;;;;;;4842765;29;20200;-78
2023/11/11 00:31:31;;;;;;;4.05;1.20;;;7.60;99.90;;;;;;4842545;29;20533;-78
2023/11/11 00:33:58;;;;;;;4.97;1.30;;;7.60;99.90;;;;;;4826314;29;20245;-79
2023/11/11 00:36:25;;;;;;;5.38;1.10;;;7.60;99.90;;;;;;4826101;29;20709;-79
2023/11/11 00:38:51;;;;;;;4.70;1.65;;;7.60;99.90;;;;;;4825671;29;20512;-78
2023/11/11 00:41:17;;;;;;;5.40;1.50;;;7.60;99.90;;;;;;4826259;29;20215;-78
2023/11/11 00:43:42;;;;;;;1.73;0.90;;;7.60;99.90;;;;;;4842505;29;20193;-79
2023/11/11 00:46:09;;;;;;;3.50;1.10;;;7.60;99.90;;;;;;4842505;29;20260;-78
2023/11/11 00:48:37;;;;;;;4.90;1.10;;;7.60;99.90;;;;;;4826236;29;20239;-82
2023/11/11 00:51:03;;;;;;;5.73;1.30;;;7.60;99.90;;;;;;4842133;29;20177;-78
2023/11/11 00:53:28;;;;;;;7.85;1.40;;;7.50;99.90;;;;;;4842396;29;20640;-79
2023/11/11 00:55:54;;;;;;;4.40;1.00;;;7.60;99.90;;;;;;4826322;29;20213;-78
2023/11/11 00:58:21;;;;;;;4.17;1.00;;;7.50;99.90;;;;;;4818544;29;20613;-78
2023/11/11 01:00:47;;;;;;;2.33;0.90;;;7.50;99.90;;;;;;4842571;29;20513;-79
2023/11/11 01:03:13;;;;;;;6.80;1.40;;;7.60;99.90;;;;;;4842139;29;20276;-90
2023/11/11 01:05:40;;;;;;;5.37;0.97;;;7.60;99.90;;;;;;4842236;29;20605;-79
2023/11/11 01:08:06;;;;;;;2.33;1.00;;;7.60;99.90;;;;;;4825725;29;20195;-78
2023/11/11 01:10:37;;;;;;;4.43;1.23;;;7.50;99.90;;;;;;4842206;29;20185;-78
2023/11/11 01:13:03;;;;;;;5.40;1.43;;;7.60;99.90;;;;;;4842350;29;20182;-78
2023/11/11 01:15:30;;;;;;;5.00;1.10;;;7.60;99.90;;;;;;4842150;29;20194;-78
2023/11/11 01:17:55;;;;;;;3.35;1.20;;;7.60;99.90;;;;;;4842358;29;20192;-79
2023/11/11 01:20:21;;;;;;;2.72;1.05;;;7.50;99.90;;;;;;4826130;29;20280;-84
2023/11/11 01:22:47;;;;;;;2.22;1.00;;;7.60;99.90;;;;;;4825669;29;20621;-78
2023/11/11 01:25:13;;;;;;;6.78;1.20;;;7.50;99.90;;;;;;4842019;29;20231;-79
2023/11/11 01:27:39;;;;;;;4.40;0.80;;;7.50;99.90;;;;;;4825709;29;20209;-78
2023/11/11 01:30:07;;;;;;;4.53;1.20;;;7.60;99.90;;;;;;4842273;29;20521;-80
2023/11/11 01:32:33;;;;;;;4.20;1.00;;;7.60;99.90;;;;;;4842456;29;20193;-79
2023/11/11 01:34:59;;;;;;;2.07;0.90;;;7.60;99.90;;;;;;4828571;29;20201;-79
2023/11/11 01:37:24;;;;;;;4.50;1.23;;;7.60;99.90;;;;;;4828469;29;20253;-78
2023/11/11 01:39:50;;;;;;;7.28;1.30;;;7.60;99.90;;;;;;4845573;29;20189;-90
2023/11/11 01:42:16;;;;;;;4.57;1.05;;;7.60;99.90;;;;;;4845429;29;20588;-89
2023/11/11 01:44:42;;;;;;;4.28;0.90;;;7.60;99.90;;;;;;4845380;29;20185;-90
2023/11/11 01:47:08;;;;;;;4.22;1.13;;;7.60;99.90;;;;;;4845021;29;20236;-80
2023/11/11 01:49:34;;;;;;;2.53;1.15;;;7.60;99.90;;;;;;4828748;29;20325;-79
2023/11/11 01:52:05;;;;;;;3.35;1.27;;;7.50;99.90;;;;;;4828505;29;20544;-80
2023/11/11 01:54:32;;;;;;;4.63;1.05;;;7.50;99.90;;;;;;4828530;29;20189;-80
2023/11/11 01:57:03;;;;;;;2.40;0.80;;;7.50;99.90;;;;;;4844938;29;20292;-79
2023/11/11 01:59:31;;;;;;;5.85;1.17;;;7.50;99.90;;;;;;4828607;29;20197;-78
2023/11/11 02:02:00;;;;;;;2.65;1.00;;;7.50;99.90;;;;;;4845303;29;20193;-79
2023/11/11 02:04:26;;;;;;;4.07;1.13;;;7.50;99.90;;;;;;4828873;29;20213;-78
2023/11/11 02:06:52;;;;;;;6.32;1.25;;;7.40;99.90;;;;;;4828365;29;20277;-87
2023/11/11 02:09:22;;;;;;;4.97;1.00;;;7.40;99.90;;;;;;4828771;29;20200;-80
2023/11/11 02:11:51;;;;;;;6.63;1.33;;;7.50;99.90;;;;;;4845315;29;20276;-86
2023/11/11 02:14:17;;;;;;;6.25;1.20;;;7.50;99.90;;;;;;4828520;29;20578;-81
2023/11/11 02:16:44;;;;;;;3.97;0.85;;;7.50;99.90;;;;;;4844918;29;20189;-91
2023/11/11 02:19:10;;;;;;;2.35;1.00;;;7.50;99.90;;;;;;4844739;29;20185;-91
2023/11/11 02:21:35;;;;;;;5.78;1.20;;;7.50;99.90;;;;;;4828454;29;20196;-93
2023/11/11 02:24:03;;;;;;;1.88;0.90;;;7.50;99.90;;;;;;4844834;29;20193;-93
2023/11/11 02:26:29;;;;;;;2.45;0.93;;;7.40;99.90;;;;;;4844794;29;20212;-91
2023/11/11 02:28:55;;;;;;;3.90;0.80;;;7.40;99.90;;;;;;4827998;29;20193;-88
2023/11/11 02:31:22;;;;;;;4.25;1.10;;;7.40;99.90;;;;;;4844778;29;20253;-94
2023/11/11 02:33:47;;;;;;;3.08;1.00;;;7.40;99.90;;;;;;4844732;29;20190;-79
2023/11/11 02:36:14;;;;;;;3.35;1.00;;;7.40;99.90;;;;;;4827897;29;20243;-79
2023/11/11 02:38:40;;;;;;;4.30;1.13;;;7.40;99.90;;;;;;4828223;29;20244;-81
2023/11/11 02:41:06;;;;;;;3.42;1.08;;;7.40;99.90;;;;;;4828250;29;20193;-81
2023/11/11 02:43:32;;;;;;;3.72;0.95;;;7.40;99.90;;;;;;4844104;29;20190;-82
2023/11/11 02:45:58;;;;;;;3.28;0.70;;;7.40;99.90;;;;;;5226651;24;20817;-79
2023/11/11 02:48:24;;;;;;;2.92;1.17;;;7.40;99.90;;;;;;4827801;29;20196;-78
2023/11/11 02:50:49;;;;;;;4.32;1.00;;;7.40;99.90;;;;;;4844670;29;20197;-79
2023/11/11 02:53:15;;;;;;;5.90;1.10;;;7.40;99.90;;;;;;4844601;29;20197;-94
2023/11/11 02:55:41;;;;;;;4.90;1.17;;;7.40;99.90;;;;;;4844636;29;20189;-92
2023/11/11 02:58:08;;;;;;;6.45;1.15;;;7.40;99.90;;;;;;4844355;29;20196;-93
2023/11/11 03:00:36;;;;;;;4.00;1.10;;;7.40;99.90;;;;;;4844348;29;20203;-79
2023/11/11 03:03:02;;;;;;;4.18;1.10;;;7.40;99.90;;;;;;4827862;29;20193;-78
2023/11/11 03:05:29;;;;;;;4.32;1.30;;;7.40;99.90;;;;;;4844353;29;20280;-78
2023/11/11 03:07:55;;;;;;;3.85;1.02;;;7.40;99.90;;;;;;4844362;29;20185;-78
2023/11/11 03:10:20;;;;;;;3.80;1.13;;;7.40;99.90;;;;;;4836914;29;20196;-78
2023/11/11 03:12:47;;;;;;;4.13;0.90;;;7.40;99.90;;;;;;4844095;29;20189;-79
2023/11/11 03:15:13;;;;;;;6.93;1.48;;;7.30;99.90;;;;;;4843848;29;20193;-80
2023/11/11 03:17:39;;;;;;;5.70;1.10;;;7.30;99.90;;;;;;4843436;29;20586;-78
2023/11/11 03:20:05;;;;;;;3.08;1.08;;;7.40;99.90;;;;;;4827386;29;20224;-77
2023/11/11 03:22:31;;;;;;;6.03;1.33;;;7.30;99.90;;;;;;4843631;29;20221;-77
2023/11/11 03:24:57;;;;;;;2.50;1.23;;;7.30;99.90;;;;;;4844005;29;20220;-78
2023/11/11 03:27:23;;;;;;;4.67;1.27;;;7.30;99.90;;;;;;4844044;29;20304;-80
2023/11/11 03:29:49;;;;;;;4.43;1.42;;;7.30;99.90;;;;;;4844216;29;20186;-88
2023/11/11 03:32:15;;;;;;;3.67;1.00;;;7.30;99.90;;;;;;4843825;29;20781;-91
2023/11/11 03:34:42;;;;;;;5.55;1.30;;;7.30;99.90;;;;;;4843136;29;20617;-94
2023/11/11 03:37:07;;;;;;;3.28;1.08;;;7.30;99.90;;;;;;4843913;29;20189;-92
2023/11/11 03:39:33;;;;;;;3.95;1.15;;;7.30;99.90;;;;;;4844025;29;20629;-78
2023/11/11 03:41:59;;;;;;;5.90;1.10;;;7.20;99.90;;;;;;4844050;29;20228;-78
2023/11/11 03:44:25;;;;;;;3.47;1.15;;;7.20;99.90;;;;;;4843890;29;20216;-78
2023/11/11 03:46:51;;;;;;;3.20;0.83;;;7.10;99.90;;;;;;4843338;29;20649;-79
2023/11/11 03:49:17;;;;;;;1.98;0.93;;;7.10;99.90;;;;;;4843946;29;20642;-78
2023/11/11 03:51:42;;;;;;;5.07;1.30;;;7.10;99.90;;;;;;4843963;29;20263;-78
2023/11/11 03:54:08;;;;;;;4.38;1.17;;;7.00;99.90;;;;;;4843718;29;20280;-78
2023/11/11 03:56:34;;;;;;;6.45;0.93;;;7.00;99.90;;;;;;4843423;29;20605;-78
2023/11/11 03:59:00;;;;;;;3.73;0.90;;;7.00;99.90;;;;;;4843610;29;20189;-79
2023/11/11 04:01:26;;;;;;;3.47;0.80;;;7.00;99.90;;;;;;4843557;29;20189;-79
2023/11/11 04:03:52;;;;;;;4.67;1.27;;;6.90;99.90;;;;;;4843512;29;20261;-78
2023/11/11 04:06:18;;;;;;;3.07;1.00;;;6.90;99.90;;;;;;4843510;29;20220;-76
2023/11/11 04:08:43;;;;;;;4.03;1.10;;;6.90;99.90;;;;;;4843565;29;20188;-78
2023/11/11 04:11:09;;;;;;;5.33;1.10;;;6.90;99.90;;;;;;4843474;29;20193;-93
2023/11/11 04:13:39;;;;;;;3.72;1.05;;;6.90;99.90;;;;;;4843537;29;20266;-94
2023/11/11 04:16:06;;;;;;;2.33;0.93;;;6.90;99.90;;;;;;4843348;29;20182;-91
2023/11/11 04:18:34;;;;;;;6.47;1.40;;;6.90;99.90;;;;;;4843488;29;20185;-92
2023/11/11 04:21:00;;;;;;;6.03;1.50;;;6.90;99.90;;;;;;4827495;29;20566;-79
2023/11/11 04:23:28;;;;;;;4.07;1.00;;;6.80;99.90;;;;;;4827439;29;20200;-78
2023/11/11 04:25:57;;;;;;;2.70;1.00;;;6.80;99.90;;;;;;4843692;29;20240;-78
2023/11/11 04:28:27;;;;;;;5.00;1.23;;;6.90;99.90;;;;;;4820223;29;20221;-79
2023/11/11 04:30:52;;;;;;;5.30;1.77;;;6.90;99.90;;;;;;4827366;29;20181;-77
2023/11/11 04:33:21;;;;;;;6.30;1.30;;;6.90;99.90;;;;;;4843535;29;20257;-78
2023/11/11 04:35:47;;;;;;;2.93;1.03;;;6.90;99.90;;;;;;4827302;29;20189;-79
2023/11/11 04:38:12;;;;;;;3.90;1.27;;;6.90;99.90;;;;;;4843403;29;20232;-81
2023/11/11 04:40:39;;;;;;;2.22;1.20;;;6.90;99.90;;;;;;4843532;29;20237;-89
2023/11/11 04:43:05;;;;;;;5.73;1.50;;;6.90;99.90;;;;;;4827169;29;20276;-88
2023/11/11 04:45:31;;;;;;;2.90;1.07;;;6.90;99.90;;;;;;4843490;29;20185;-90
2023/11/11 04:47:58;;;;;;;3.40;0.90;;;6.90;99.90;;;;;;4823525;29;20237;-89
2023/11/11 04:50:24;;;;;;;2.80;0.97;;;6.90;99.90;;;;;;4823960;29;20189;-90
2023/11/11 04:52:50;;;;;;;3.70;1.02;;;6.90;99.90;;;;;;4824192;29;20277;-93
2023/11/11 04:55:17;;;;;;;2.67;1.13;;;6.90;99.90;;;;;;4825142;29;20190;-95
2023/11/11 04:57:43;;;;;;;5.40;1.47;;;7.00;99.90;;;;;;4825107;29;20189;-91
2023/11/11 05:00:11;;;;;;;6.77;1.30;;;7.00;99.90;;;;;;4824978;29;20201;-93
2023/11/11 05:02:40;;;;;;;7.33;1.30;;;7.00;99.90;;;;;;4824672;29;20186;-78
2023/11/11 05:05:10;;;;;;;3.87;1.30;;;7.00;99.90;;;;;;4824901;29;20212;-77
2023/11/11 05:07:38;;;;;;;6.90;1.50;;;7.00;99.90;;;;;;4825841;29;20218;-78
2023/11/11 05:10:05;;;;;;;3.87;1.30;;;7.00;99.90;;;;;;4828317;29;20542;-78
2023/11/11 05:12:35;;;;;;;3.03;1.00;;;7.00;99.90;;;;;;4828334;29;20189;-78
2023/11/11 05:15:04;;;;;;;5.00;0.90;;;7.10;99.90;;;;;;4828101;29;20209;-77
2023/11/11 05:17:30;;;;;;;7.53;1.50;;;7.10;99.90;;;;;;4826717;29;20602;-78
2023/11/11 05:19:59;;;;;;;2.23;1.03;;;7.00;99.90;;;;;;4828144;29;20264;-77
2023/11/11 05:22:26;;;;;;;2.93;1.03;;;7.00;99.90;;;;;;4828282;29;20235;-80
2023/11/11 05:24:52;;;;;;;8.43;1.30;;;7.00;99.90;;;;;;4828109;29;20182;-78
2023/11/11 05:27:18;;;;;;;4.80;1.40;;;7.00;99.90;;;;;;4827884;29;20258;-77
2023/11/11 05:29:44;;;;;;;2.90;1.23;;;7.00;99.90;;;;;;4828053;29;20229;-82
2023/11/11 05:32:09;;;;;;;2.83;1.07;;;7.00;99.90;;;;;;4827684;29;20192;-78
2023/11/11 05:34:36;;;;;;;4.07;1.20;;;7.00;99.90;;;;;;4827715;29;20188;-87
2023/11/11 05:37:02;;;;;;;3.97;1.27;;;7.00;99.90;;;;;;4827843;29;20213;-89
2023/11/11 05:39:32;;;;;;;4.63;1.20;;;7.00;99.90;;;;;;4826579;29;20550;-81
2023/11/11 05:41:57;;;;;;;5.47;1.20;;;7.00;99.90;;;;;;4827975;29;20193;-81
2023/11/11 05:44:23;;;;;;;2.83;1.00;;;7.00;99.90;;;;;;4827528;29;20198;-92
2023/11/11 05:46:49;;;;;;;9.07;1.50;;;7.00;99.90;;;;;;4836530;29;20252;-93
2023/11/11 05:49:15;;;;;;;6.23;1.40;;;7.00;99.90;;;;;;4845738;29;20185;-77
2023/11/11 05:51:41;;;;;;;3.07;0.93;;;7.00;99.90;;;;;;4846143;29;20201;-79
2023/11/11 05:54:07;;;;;;;4.17;1.10;;;7.00;99.90;;;;;;4845689;29;20213;-78
2023/11/11 05:56:32;;;;;;;4.77;1.67;;;7.00;99.90;;;;;;4845874;29;20538;-78
2023/11/11 05:58:59;;;;;;;7.17;1.40;;;7.00;99.90;;;;;;4845762;29;20217;-78
2023/11/11 06:01:26;;;;;;;6.20;1.20;;;7.00;99.90;;;;;;4845104;29;20225;-78
2023/11/11 06:03:52;;;;;;;3.77;1.20;;;7.00;99.90;;;;;;4828934;29;20249;-77
2023/11/11 06:06:17;;;;;;;7.27;1.47;;;7.00;99.90;;;;;;4845929;29;20304;-81
2023/11/11 06:08:44;;;;;;;5.07;1.30;;;7.00;99.90;;;;;;4829446;29;20741;-78
2023/11/11 06:11:10;;;;;;;4.83;1.23;;;7.00;99.90;;;;;;4829102;29;20198;-78
2023/11/11 06:13:36;;;;;;;4.07;1.00;;;7.00;99.90;;;;;;4829167;29;20514;-77
2023/11/11 06:16:02;;;;;;;3.30;1.17;;;7.00;99.90;;;;;;4845205;29;20193;-77
2023/11/11 06:18:27;;;;;;;5.93;1.33;;;7.00;99.90;;;;;;4844735;29;20203;-77
2023/11/11 06:20:53;;;;;;;5.30;1.43;;;7.00;99.90;;;;;;4828630;29;20241;-77
2023/11/11 06:23:19;;;;;;;7.70;1.43;;;7.00;99.90;;;;;;4844861;29;20190;-87
2023/11/11 06:25:45;;;;;;;4.70;1.23;;;7.00;99.90;;;;;;4844994;29;20295;-91
2023/11/11 06:28:10;;;;;;;3.77;1.20;;;7.00;99.90;;;;;;4844920;29;20193;-78
2023/11/11 06:30:36;;;;;;;2.77;1.10;;;7.00;99.90;;;;;;4844999;29;20185;-79
2023/11/11 06:33:02;;;;;;;6.50;1.60;;;7.00;99.90;;;;;;4844573;29;20186;-77
2023/11/11 06:35:28;;;;;;;3.97;1.40;;;7.00;99.90;;;;;;4844809;29;20185;-78
2023/11/11 06:37:55;;;;;;;7.97;1.30;;;7.00;99.90;;;;;;4844809;29;20217;-78
2023/11/11 06:40:22;;;;;;;4.27;1.03;;;7.00;99.90;;;;;;4844788;29;20182;-77
2023/11/11 06:42:49;;;;;;;5.03;0.90;;;7.10;99.90;;;;;;4828602;29;20185;-77
2023/11/11 06:45:15;;;;;;;11.20;0.90;;;7.00;99.90;;;;;;4844788;29;20189;-76
2023/11/11 06:47:41;;;;;;;1.77;0.70;;;7.00;99.90;;;;;;4843923;29;20233;-77
2023/11/11 06:50:09;;;;;;;2.77;0.77;;;6.90;99.90;;;;;;4844820;29;20264;-77
2023/11/11 06:52:35;;;;;;;1.47;1.07;;;6.90;99.90;;;;;;4844444;29;20272;-77
2023/11/11 06:55:04;;;;;;;7.87;0.90;;;6.90;99.90;;;;;;4844000;29;20189;-78
2023/11/11 06:57:30;;;;;;;2.93;0.97;;;6.90;99.90;;;;;;4843803;29;20260;-77
2023/11/11 06:59:55;;;;;;;1.27;0.73;;;6.90;99.90;;;;;;4844262;29;20185;-77
2023/11/11 07:02:22;;;;;;;1.30;0.70;;;6.90;99.90;;;;;;4843306;29;20192;-77
2023/11/11 07:04:54;;;;;;;1.83;1.00;;;6.90;99.90;;;;;;4842828;29;20644;-80
2023/11/11 07:07:24;;;;;;;3.17;0.90;;;6.90;99.90;;;;;;4841161;29;20217;-93
2023/11/11 07:09:56;;;;;;;1.80;0.90;;;6.90;99.90;;;;;;4839827;29;20177;-87
2023/11/11 07:12:22;;;;;;;2.57;0.77;;;6.90;99.90;;;;;;4843508;29;20190;-77
2023/11/11 07:14:48;;;;;;;3.57;1.80;;;6.80;99.90;;;;;;4843586;29;20201;-81
2023/11/11 07:17:14;;;;;;;2.20;1.20;;;6.80;99.90;;;;;;4843421;29;20562;-78
2023/11/11 07:19:40;;;;;;;2.40;1.00;;;6.80;99.90;;;;;;4843980;29;20197;-89
2023/11/11 07:22:07;;;;;;;2.23;0.80;;;6.80;99.90;;;;;;4844171;29;20185;-77
2023/11/11 07:24:33;;;;;;;3.30;1.33;;;6.80;99.90;;;;;;4842933;29;20193;-77
2023/11/11 07:26:59;;;;;;;1.30;0.80;;;6.80;99.90;;;;;;4843635;29;20225;-78
2023/11/11 07:29:25;;;;;;;2.83;0.97;;;6.80;99.90;;;;;;4843353;29;20263;-77
2023/11/11 07:31:54;;;;;;;2.97;0.90;;;6.80;99.90;;;;;;4842579;29;20213;-78
2023/11/11 07:34:20;;;;;;;3.63;1.30;;;6.80;99.90;;;;;;4843564;29;20525;-77
2023/11/11 07:36:46;;;;;;;7.40;1.40;;;6.80;99.90;;;;;;4827006;29;20201;-77
2023/11/11 07:39:13;;;;;;;5.90;1.20;;;6.80;99.90;;;;;;4843432;29;20508;-77
2023/11/11 07:41:39;;;;;;;3.63;1.20;;;6.80;99.90;;;;;;4842830;29;20625;-77
2023/11/11 07:44:06;;;;;;;1.50;0.87;;;6.90;99.90;;;;;;4843210;29;20185;-80
2023/11/11 07:46:33;;;;;;;2.13;1.20;;;6.90;99.90;;;;;;4825735;29;20662;-79
2023/11/11 07:49:05;;;;;;;2.27;1.17;;;6.90;99.90;;;;;;4827159;29;20238;-86
2023/11/11 07:51:33;;;;;;;3.40;1.00;;;6.80;99.90;;;;;;4843351;29;20609;-91
2023/11/11 07:53:58;;;;;;;2.43;1.10;;;6.90;99.90;;;;;;4826512;29;20862;-92
2023/11/11 07:56:24;;;;;;;1.73;1.00;;;6.90;99.90;;;;;;4841956;29;20185;-77
2023/11/11 07:58:53;;;;;;;2.23;0.90;;;6.90;99.90;;;;;;4843094;29;20245;-77
2023/11/11 08:01:22;;;;;;;2.40;0.83;;;6.90;99.90;;;;;;4839488;29;20948;-76
2023/11/11 08:03:48;;;;;;;2.47;0.80;;;6.90;99.90;;;;;;4842968;29;20193;-77
2023/11/11 08:06:14;;;;;;;1.00;0.90;;;6.90;99.90;;;;;;4825815;29;20225;-77
2023/11/11 08:08:40;;;;;;;4.37;1.00;;;6.80;99.90;;;;;;4842214;29;20189;-76
2023/11/11 08:11:10;;;;;;;1.23;1.00;;;6.80;99.90;;;;;;4843851;29;20185;-77
2023/11/11 08:13:36;;;;;;;2.50;1.00;;;6.80;99.90;;;;;;4841135;29;20652;-76
2023/11/11 08:16:02;;;;;;;3.00;1.10;;;6.90;99.90;;;;;;4842993;29;20185;-76
2023/11/11 08:18:28;;;;;;;2.83;1.00;;;6.90;99.90;;;;;;4825812;29;20181;-77
2023/11/11 08:20:54;;;;;;;2.93;1.10;;;6.90;99.90;;;;;;4842553;29;20350;-77
2023/11/11 08:23:20;;;;;;;0.70;0.60;;;6.90;99.90;;;;;;4826597;29;20544;-76
2023/11/11 08:25:45;;;;;;;1.33;0.67;;;6.90;99.90;;;;;;4842330;29;20197;-76
2023/11/11 08:28:11;;;;;;;3.50;0.80;;;6.90;99.90;;;;;;4825478;29;20197;-78
2023/11/11 08:30:37;;;;;;;2.83;0.80;;;6.90;99.90;;;;;;4842437;29;20181;-84
2023/11/11 08:33:03;;;;;;;1.17;0.70;;;6.90;99.90;;;;;;4841429;29;20267;-82
2023/11/11 08:35:29;;;;;;;1.33;0.50;;;6.90;99.90;;;;;;4842009;29;20589;-93
2023/11/11 08:37:55;;;;;;;1.53;0.50;;;6.90;99.90;;;;;;4841655;29;20260;-78
2023/11/11 08:40:21;;;;;;;1.10;0.50;;;6.80;99.90;;;;;;4842136;29;20189;-80
2023/11/11 08:42:47;;;;;;;1.33;0.63;;;6.80;99.90;;;;;;4842959;29;20495;-78
2023/11/11 08:45:13;;;;;;;1.70;0.70;;;6.80;99.90;;;;;;4846022;29;20200;-78
2023/11/11 08:47:39;;;;;;;5.20;0.60;;;6.80;99.90;;;;;;4829240;29;20252;-77
2023/11/11 08:50:09;;;;;;;0.70;0.50;;;6.80;99.90;;;;;;4846454;29;20185;-76
2023/11/11 08:52:41;;;;;;;3.70;0.70;;;6.70;99.90;;;;;;4846388;29;20201;-77
2023/11/11 08:55:08;;;;;;;0.93;0.60;;;6.70;99.90;;;;;;4846116;29;20193;-77
2023/11/11 08:57:35;;;;;;;0.60;0.50;;;6.70;99.90;;;;;;4846342;29;20192;-77
2023/11/11 09:00:05;;;;;;;1.90;0.70;;;6.70;99.90;;;;;;4846815;29;20233;-77
2023/11/11 09:02:31;;;;;;;1.57;0.80;;;6.70;99.90;;;;;;4846721;29;20189;-77
2023/11/11 09:04:56;;;;;;;1.80;0.60;;;6.70;99.90;;;;;;4846374;29;20190;-81
2023/11/11 09:07:22;;;;;;;0.87;0.70;;;6.70;99.90;;;;;;4829842;29;20232;-77
2023/11/11 09:09:48;;;;;;;1.30;0.70;;;6.70;99.90;;;;;;4829667;29;20200;-89
2023/11/11 09:12:14;;;;;;;2.57;0.53;;;6.70;99.90;;;;;;4846251;29;20196;-87
2023/11/11 09:14:40;;;;;;;1.47;0.80;;;6.80;99.90;;;;;;4846539;29;20216;-87
2023/11/11 09:17:06;;;;;;;1.83;1.00;;;6.70;99.90;;;;;;4846053;29;20220;-91
2023/11/11 09:19:31;;;;;;;1.87;0.77;;;6.70;99.90;;;;;;4846555;29;20225;-93
2023/11/11 09:21:58;;;;;;;1.77;1.30;;;6.70;99.90;;;;;;4846294;29;20637;-79
2023/11/11 09:24:24;;;;;;;1.67;1.37;;;6.70;99.90;;;;;;4838466;29;20185;-78
2023/11/11 09:26:50;;;;;;;2.10;1.60;;;6.70;99.90;;;;;;4829455;29;20669;-78
2023/11/11 09:29:18;;;;;;;2.47;1.63;;;6.70;99.90;;;;;;4846119;29;20190;-80
2023/11/11 09:31:44;;;;;;;5.43;1.77;;;6.70;99.90;;;;;;4846237;29;20249;-78
2023/11/11 09:34:11;;;;;;;2.83;1.63;;;6.70;99.90;;;;;;4845888;29;20193;-77
2023/11/11 09:36:39;;;;;;;4.73;2.20;;;6.80;99.90;;;;;;4845590;29;20189;-78
2023/11/11 09:39:08;;;;;;;6.80;2.40;;;6.90;99.90;;;;;;4845564;29;20644;-77
2023/11/11 09:41:36;;;;;;;3.70;2.83;;;7.00;99.90;;;;;;4845866;29;20220;-77
2023/11/11 09:44:03;;;;;;;4.87;3.43;;;7.00;99.90;;;;;;4845857;29;20242;-77
2023/11/11 09:46:41;;;;;;;6.73;4.07;;;7.00;99.90;;;;;;4845471;29;20255;-77
2023/11/11 09:49:09;;;;;;;6.03;3.87;;;7.10;99.90;;;;;;4845293;29;20238;-78
2023/11/11 09:51:39;;;;;;;11.03;4.10;;;7.00;99.90;;;;;;4828984;29;20201;-78
2023/11/11 09:54:05;;;;;;;7.00;4.30;;;7.10;99.90;;;;;;4844613;29;20185;-77
2023/11/11 09:56:31;;;;;;;5.47;4.07;;;7.10;99.90;;;;;;4845423;29;20195;-78
2023/11/11 09:58:59;;;;;;;5.17;4.47;;;7.20;99.90;;;;;;4845407;29;20617;-80
2023/11/11 10:01:26;;;;;;;7.53;5.50;;;7.20;99.90;;;;;;4806632;29;20189;-79
2023/11/11 10:03:53;;;;;;;6.57;5.07;;;7.40;99.90;;;;;;4845162;29;20200;-78
2023/11/11 10:06:23;;;;;;;5.77;5.03;;;7.30;99.90;;;;;;4845075;29;20270;-78
2023/11/11 10:08:52;;;;;;;7.67;4.87;;;7.40;99.90;;;;;;4844624;29;20197;-79
2023/11/11 10:11:18;;;;;;;5.53;4.13;;;7.50;99.90;;;;;;4844949;29;20189;-78
2023/11/11 10:13:45;;;;;;;8.67;4.80;;;7.50;99.90;;;;;;4828568;29;20197;-77
2023/11/11 10:16:17;;;;;;;8.53;4.07;;;7.50;99.90;;;;;;4828414;29;20249;-77
2023/11/11 10:18:46;;;;;;;6.47;3.90;;;7.50;99.90;;;;;;4844909;29;20617;-78
2023/11/11 10:21:16;;;;;;;5.97;3.57;;;7.50;99.90;;;;;;4844864;29;20181;-78
2023/11/11 10:23:45;;;;;;;6.83;3.50;;;7.50;99.90;;;;;;4826732;29;20216;-78
2023/11/11 10:26:11;;;;;;;4.30;3.23;;;7.50;99.90;;;;;;4844762;29;20692;-77
2023/11/11 10:28:37;;;;;;;4.47;3.10;;;7.50;99.90;;;;;;4843814;29;20227;-77
2023/11/11 10:31:07;;;;;;;4.17;2.77;;;7.50;99.90;;;;;;4844873;29;20193;-78
2023/11/11 10:33:34;;;;;;;6.60;3.03;;;7.60;99.90;;;;;;4844597;29;20505;-77
2023/11/11 10:36:02;;;;;;;7.37;3.00;;;7.60;99.90;;;;;;4844705;29;20189;-78
2023/11/11 10:38:28;;;;;;;4.63;3.07;;;7.60;99.90;;;;;;4844486;29;20190;-77
2023/11/11 10:40:54;;;;;;;6.37;3.40;;;7.70;99.90;;;;;;4844299;29;20208;-77
2023/11/11 10:43:20;;;;;;;6.53;2.60;;;7.70;99.90;;;;;;4843479;29;20272;-78
2023/11/11 10:45:48;;;;;;;6.30;2.83;;;7.80;99.90;;;;;;4844106;29;20680;-77
2023/11/11 10:48:14;;;;;;;3.33;2.60;;;7.80;99.90;;;;;;4844315;29;20200;-78
2023/11/11 10:50:42;;;;;;;3.30;2.60;;;7.70;99.90;;;;;;4844237;29;20239;-90
2023/11/11 10:53:09;;;;;;;5.97;2.70;;;7.60;99.90;;;;;;4844198;29;20185;-86
2023/11/11 10:55:38;;;;;;;3.23;1.90;;;7.70;99.90;;;;;;4843732;29;20515;-92
2023/11/11 10:58:06;;;;;;;5.47;2.20;;;7.70;99.90;;;;;;4843191;29;20190;-92
2023/11/11 11:00:35;;;;;;;4.77;2.20;;;7.70;99.90;;;;;;4842924;29;20184;-78
2023/11/11 11:03:02;;;;;;;2.73;1.90;;;7.70;99.90;;;;;;4844080;29;20693;-77
2023/11/11 11:05:48;;;;;;;5.17;1.97;;;7.70;99.90;;;;;;4827014;29;20193;-78
2023/11/11 11:08:39;;;;;;;3.37;2.10;;;7.70;99.90;;;;;;4841739;29;20193;-83
2023/11/11 11:11:13;;;;;;;9.53;2.10;;;7.80;99.90;;;;;;4826936;29;20274;-92
2023/11/11 11:13:48;;;;;;;4.90;2.23;;;7.70;99.90;;;;;;4843742;29;20193;-94
2023/11/11 11:16:26;;;;;;;4.13;1.97;;;7.80;99.90;;;;;;4843796;29;20200;-93
2023/11/11 11:18:56;;;;;;;3.53;1.83;;;7.80;99.90;;;;;;4843713;29;20196;-92
2023/11/11 11:21:22;;;;;;;2.80;2.13;;;7.90;99.90;;;;;;4843775;29;20209;-79
2023/11/11 11:23:50;;;;;;;3.60;2.10;;;7.90;99.90;;;;;;4843514;29;20185;-80
2023/11/11 11:26:27;;;;;;;2.73;2.03;;;7.90;99.90;;;;;;4842355;29;20296;-77
2023/11/11 11:29:13;;;;;;;4.03;2.03;;;7.80;99.90;;;;;;4839466;29;20873;-82
2023/11/11 11:32:10;;;;;;;4.17;2.70;;;7.90;99.90;;;;;;4838002;29;20201;-88
2023/11/11 11:34:42;;;;;;;3.43;2.30;;;8.00;99.90;;;;;;4838392;29;20188;-91
2023/11/11 11:37:12;;;;;;;3.70;2.30;;;8.00;99.90;;;;;;4843928;29;20268;-86
2023/11/11 11:39:44;;;;;;;2.23;1.90;;;8.10;99.90;;;;;;4827369;29;20197;-88
2023/11/11 11:42:24;;;;;;;3.17;1.90;;;8.20;99.90;;;;;;4844176;29;20193;-92
2023/11/11 11:44:59;;;;;;;3.97;2.27;;;8.30;99.90;;;;;;4844086;29;20326;-86
2023/11/11 11:47:29;;;;;;;3.57;1.90;;;8.30;99.90;;;;;;4843513;29;20251;-94
2023/11/11 11:49:56;;;;;;;3.70;1.80;;;8.40;99.90;;;;;;4827852;29;20223;-94
2023/11/11 11:52:22;;;;;;;3.27;2.00;;;8.30;99.90;;;;;;4844062;29;20189;-84
2023/11/11 11:54:48;;;;;;;2.30;1.47;;;8.40;99.90;;;;;;4843759;29;20173;-82
2023/11/11 11:57:14;;;;;;;1.90;1.70;;;8.40;99.90;;;;;;4843766;29;20211;-91
2023/11/11 11:59:44;;;;;;;3.13;1.50;;;8.40;99.90;;;;;;4844270;29;20230;-80
2023/11/11 12:02:15;;;;;;;1.75;1.40;;;8.30;99.90;;;;;;4843635;29;20177;-85
2023/11/11 12:04:41;;;;;;;3.15;1.40;;;8.30;99.90;;;;;;4843778;29;20189;-87
2023/11/11 12:07:12;;;;;;;3.67;1.70;;;8.30;99.90;;;;;;4840957;29;20209;-89
2023/11/11 12:09:40;;;;;;;4.67;1.57;;;8.30;99.90;;;;;;4843884;29;20189;-87
2023/11/11 12:12:07;;;;;;;2.37;1.37;;;8.30;99.90;;;;;;4843990;29;20216;-90
2023/11/11 12:14:34;;;;;;;2.83;1.30;;;8.30;99.90;;;;;;4843559;29;20177;-77
2023/11/11 12:16:59;;;;;;;2.37;1.10;;;8.30;99.90;;;;;;4840123;29;20193;-77
2023/11/11 12:19:26;;;;;;;4.83;1.23;;;8.30;99.90;;;;;;4842818;29;20182;-76
2023/11/11 12:21:53;;;;;;;3.40;1.50;;;8.30;99.90;;;;;;4843171;29;20652;-80
2023/11/11 12:24:25;;;;;;;3.08;1.13;;;8.30;99.90;;;;;;4842701;29;20681;-77
2023/11/11 12:26:53;;;;;;;3.90;1.33;;;8.20;99.90;;;;;;4842789;29;20708;-78
2023/11/11 12:29:19;;;;;;;1.93;1.20;;;8.20;99.90;;;;;;4842763;29;20617;-78
2023/11/11 12:31:56;;;;;;;2.20;1.33;;;8.20;99.90;;;;;;4842781;29;20237;-78
2023/11/11 12:34:23;;;;;;;1.40;0.80;;;8.20;99.90;;;;;;4842796;29;20188;-76
2023/11/11 12:36:55;;;;;;;3.07;0.90;;;8.20;99.90;;;;;;4842754;29;20185;-77
2023/11/11 12:39:22;;;;;;;1.83;0.60;;;8.10;99.90;;;;;;4842544;29;20177;-78
2023/11/11 12:41:52;;;;;;;1.57;0.70;;;8.20;99.90;;;;;;4842761;29;20192;-80
2023/11/11 12:44:23;;;;;;;3.23;0.80;;;8.30;99.90;;;;;;4826276;29;20217;-81
2023/11/11 12:46:50;;;;;;;3.50;1.33;;;8.40;99.90;;;;;;4825853;29;20586;-78
2023/11/11 12:49:27;;;;;;;2.57;0.87;;;8.30;99.90;;;;;;4842727;29;20197;-77
2023/11/11 12:51:55;;;;;;;2.47;0.80;;;8.30;99.90;;;;;;4826693;29;20184;-79
2023/11/11 12:54:31;;;;;;;3.73;1.20;;;8.20;99.90;;;;;;4825892;29;20634;-78
2023/11/11 12:56:57;;;;;;;2.33;1.17;;;8.20;99.90;;;;;;4826443;29;20192;-90
2023/11/11 12:59:23;;;;;;;1.77;0.80;;;8.20;99.90;;;;;;4824951;29;20571;-78